Terminal Aerodrome Forecast
Issued by NWS

Home | Current Version | Previous Version | Text Only | Print | Product List | Glossary On
Versions: 1 2 3 4 5 6 7 8 9 10 11 12 13 14 15 16 17 18 19 20
000
FTUS42 KTBW 061700
TAFPIE
TAF
KPIE 061734Z 0618/0718 03005KT P6SM OVC007
      TEMPO 0618/0620 2SM -SHRA BR OVC004
     FM062000 02010KT P6SM OVC008
     FM070100 02012KT P6SM OVC015
     FM071000 02012G18KT P6SM BKN025
     FM071400 04010KT P6SM BKN035=

USA.gov is the U.S. government's official web portal to all federal, state and local government web resources and services.